Flight Track Log - Related Links

Times and Time Zones

All times are in EDT time to prevent confusion due to time zone crossing. See the N8088H flight status page for this flight to view local times or setup timezone preferences in your user account.

Time Position Orientation Groundspeed Altitude Reporting Facility
EDT Latitude Longitude Course Direction KTS MPH feet Rate Location/Type
Fri 01:03:15 PM 30.4733 -89.0661 111° Southeast 87 100 2,100  Level Houston Center
Fri 01:04:17 PM 30.4783 -89.0333 80° East 105 121 2,700 581 Climbing Houston Center
Fri 01:05:19 PM 30.4656 -89.0031 116° Southeast 108 124 3,300 576 Climbing Houston Center
Fri 01:06:00 PM 30.3372 -88.8662 113° Southeast  Level Estimated
Fri 01:06:22 PM 30.4547 -88.9706 111° Southeast 107 123 3,900  Level Houston Center
Fri 01:07:00 PM 30.3219 -88.8260 114° Southeast  Level FlightAware Approximate
Fri 01:07:24 PM 30.4422 -88.9358 113° Southeast 107 123 4,600  Level Houston Center
Fri 01:08:00 PM 30.3067 -88.7859 114° Southeast  Level FlightAware Approximate
Fri 01:08:26 PM 30.4294 -88.9039 115° Southeast 109 125 5,200  Level Houston Center
Fri 01:09:00 PM 30.2926 -88.7451 111° Southeast  Level Estimated
Fri 01:09:28 PM 30.4183 -88.8714 112° Southeast 109 125 5,800  Level Houston Center
Fri 01:10:30 PM 30.4069 -88.8381 112° Southeast 111 128 6,500 629 Climbing Houston Center
Fri 01:11:32 PM 30.3936 -88.8011 113° Southeast 119 137 7,100 629 Climbing Houston Center
Fri 01:12:34 PM 30.3783 -88.7567 112° Southeast 124 143 7,800 629 Climbing Houston Center
Fri 01:13:36 PM 30.3642 -88.7186 113° Southeast 127 146 8,400 528 Climbing Houston Center
Fri 01:14:39 PM 30.3503 -88.6761 111° Southeast 137 158 8,900 240 Climbing Houston Center
Fri 01:15:41 PM 30.3325 -88.6294 114° Southeast 153 176 8,900  Level Houston Center
Fri 01:16:43 PM 30.3153 -88.5789 112° Southeast 166 191 8,900  Level Houston Center
Fri 01:17:46 PM 30.2933 -88.5189 113° Southeast 170 196 8,900  Level Houston Center
Fri 01:18:47 PM 30.2753 -88.4694 113° Southeast 168 193 8,900  Level Houston Center
Fri 01:19:49 PM 30.2592 -88.4211 111° Southeast 163 188 8,900  Level Houston Center
Fri 01:20:51 PM 30.2408 -88.3731 114° Southeast 164 189 8,900  Level Houston Center
Fri 01:21:54 PM 30.2242 -88.3256 112° Southeast 161 185 8,900  Level Houston Center
Fri 01:22:56 PM 30.2061 -88.2769 113° Southeast 163 188 8,900  Level Houston Center
Fri 01:23:58 PM 30.1867 -88.2208 112° Southeast 158 182 8,900  Level Houston Center
Fri 01:25:00 PM 30.1706 -88.1733 111° Southeast 159 183 8,900  Level Houston Center
Fri 01:26:02 PM 30.1672 -88.1225 94° East 162 186 8,900  Level Houston Center
Fri 01:27:04 PM 30.1625 -88.0747 97° East 152 175 8,900 48 Level Houston Center
Fri 01:28:06 PM 30.1736 -88.0306 74° East 165 190 9,000  Climbing Houston Center
Fri 01:29:09 PM 30.2131 -87.9950 38° Northeast 151 174 8,900 -48 Descending Houston Center
Fri 01:30:11 PM 30.2475 -87.9689 33° Northeast 149 171 8,900  Level Houston Center
Fri 01:31:13 PM 30.2811 -87.9406 36° Northeast 149 171 8,900  Level Houston Center
Fri 01:32:15 PM 30.2978 -87.9019 63° Northeast 160 184 8,900  Level Houston Center
Fri 01:33:17 PM 30.2747 -87.8633 125° Southeast 149 171 8,900  Level Houston Center
Fri 01:34:19 PM 30.2811 -87.8022 83° East 165 190 8,900  Level Houston Center
Fri 01:35:21 PM 30.2878 -87.7522 81° East 160 184 8,900  Level Houston Center
Fri 01:36:24 PM 30.2919 -87.7008 85° East 161 185 8,900  Level Houston Center
Fri 01:37:26 PM 30.2956 -87.6497 85° East 160 184 8,900  Level Houston Center
Fri 01:38:03 PM 30.2958 -87.6169 89° East 162 186 8,900  Level Jacksonville Center
Fri 01:38:57 PM 30.3017 -87.5717 82° East 162 186 8,900  Level Jacksonville Center
Fri 01:39:58 PM 30.3058 -87.5167 85° East 163 188 8,900  Level Jacksonville Center
Fri 01:40:53 PM 30.3117 -87.4711 82° East 163 188 8,900  Level Jacksonville Center
Fri 01:41:53 PM 30.3136 -87.4183 88° East 163 188 8,900  Level Jacksonville Center
Fri 01:43:00 PM 30.3197 -87.3608 83° East 164 189 8,900 49 Level Jacksonville Center
Fri 01:43:55 PM 30.3214 -87.3103 88° East 163 188 9,000 52 Climbing Jacksonville Center
Fri 01:44:56 PM 30.3275 -87.2603 82° East 163 188 9,000  Level Jacksonville Center
Fri 01:46:03 PM 30.3356 -87.2028 81° East 165 190 9,000  Level Jacksonville Center
Fri 01:46:57 PM 30.3372 -87.1522 88° East 165 190 9,000  Level Jacksonville Center
Fri 01:48:49 PM 30.3478 -87.0578 83° East 163 188 9,000  Level Houston Center
Fri 01:49:52 PM 30.3542 -86.9964 83° East 160 184 9,000  Level Houston Center
Fri 01:50:54 PM 30.3589 -86.9442 84° East 163 188 9,000  Level Houston Center
Fri 01:51:56 PM 30.3625 -86.8936 85° East 159 183 9,000  Level Houston Center
Fri 01:52:58 PM 30.3633 -86.8433 89° East 159 183 9,000  Level Houston Center
Fri 01:54:00 PM 30.3347 -86.8053 131° Southeast 154 177 9,000  Level Houston Center
Fri 01:55:02 PM 30.3378 -86.7594 86° East 160 184 9,000  Level Houston Center
Fri 01:56:05 PM 30.3481 -86.7003 79° East 161 185 9,000  Level Houston Center
Fri 01:57:07 PM 30.3414 -86.6506 99° East 160 184 9,000  Level Houston Center
Fri 01:58:09 PM 30.3325 -86.6011 102° East 158 182 9,000  Level Houston Center
Fri 01:59:11 PM 30.3258 -86.5514 99° East 157 181 9,000  Level Houston Center
Fri 02:00:13 PM 30.3197 -86.5019 98° East 156 180 9,000  Level Houston Center
Fri 02:01:15 PM 30.3147 -86.4508 96° East 158 182 9,000  Level Houston Center
Fri 02:02:17 PM 30.3072 -86.3917 98° East 156 180 9,000  Level Houston Center
Fri 02:03:20 PM 30.3003 -86.3431 99° East 155 178 9,000  Level Houston Center
Fri 02:04:22 PM 30.2942 -86.2942 98° East 155 178 9,000  Level Houston Center
Fri 02:05:24 PM 30.2875 -86.2453 99° East 154 177 9,000  Level Houston Center
Fri 02:06:26 PM 30.2822 -86.1969 97° East 152 175 9,000 -2 Level Houston Center
Fri 02:08:00 PM 30.2948 -86.1281 78° East  Level FlightAware Approximate
Fri 02:15:00 PM 30.3353 -85.8114 89° East  Level FlightAware Approximate
Fri 02:16:00 PM 30.3361 -85.7665 89° East  Level FlightAware Approximate
Fri 02:17:00 PM 30.3370 -85.7216 89° East  Level FlightAware Approximate
Fri 02:18:00 PM 30.3377 -85.6767 89° East  Level FlightAware Approximate
Fri 02:19:00 PM 30.3385 -85.6318 89° East  Level FlightAware Approximate
Fri 02:20:00 PM 30.3393 -85.5869 89° East  Level FlightAware Approximate
Fri 02:21:00 PM 30.3400 -85.5419 89° East  Level FlightAware Approximate
Fri 02:22:00 PM 30.3408 -85.4970 89° East  Level FlightAware Approximate
Fri 02:23:00 PM 30.3415 -85.4521 89° East  Level FlightAware Approximate
Fri 02:24:00 PM 30.3422 -85.4072 89° East  Level FlightAware Approximate
Fri 02:25:00 PM 30.3429 -85.3623 89° East  Level FlightAware Approximate
Fri 02:26:00 PM 30.3435 -85.3173 89° East  Level FlightAware Approximate
Fri 02:27:00 PM 30.3442 -85.2724 89° East  Level FlightAware Approximate
Fri 02:28:00 PM 30.3449 -85.2275 89° East  Level FlightAware Approximate
Fri 02:29:00 PM 30.3455 -85.1826 89° East  Level FlightAware Approximate
Fri 02:30:00 PM 30.3461 -85.1377 89° East  Level FlightAware Approximate
Fri 02:31:00 PM 30.3467 -85.0927 89° East  Level FlightAware Approximate
Fri 02:32:00 PM 30.3473 -85.0478 89° East  Level FlightAware Approximate
Fri 02:33:00 PM 30.3478 -85.0029 89° East  Level FlightAware Approximate
Fri 02:34:00 PM 30.3484 -84.9580 89° East  Level FlightAware Approximate
Fri 02:35:00 PM 30.3489 -84.9131 89° East  Level FlightAware Approximate
Fri 02:36:00 PM 30.3494 -84.8681 89° East  Level FlightAware Approximate
Fri 02:37:00 PM 30.3499 -84.8232 89° East  Level FlightAware Approximate
Fri 02:38:00 PM 30.3500 -84.7783 90° East  Level FlightAware Approximate
Fri 02:39:00 PM 30.3500 -84.7333 90° East  Level FlightAware Approximate
Fri 02:40:00 PM 30.3355 -84.6940 127° Southeast  Level FlightAware Approximate
Fri 02:41:00 PM 30.3124 -84.6579 127° Southeast  Level FlightAware Approximate
Fri 02:42:00 PM 30.2893 -84.6218 127° Southeast  Level FlightAware Approximate
Fri 02:43:00 PM 30.2662 -84.5858 127° Southeast  Level FlightAware Approximate
Fri 02:44:00 PM 30.2431 -84.5498 127° Southeast  Level FlightAware Approximate
Fri 02:45:00 PM 30.2199 -84.5137 127° Southeast  Level FlightAware Approximate
Fri 02:46:00 PM 30.1968 -84.4778 127° Southeast  Level FlightAware Approximate
Fri 02:47:00 PM 30.1736 -84.4418 127° Southeast  Level FlightAware Approximate
Fri 02:48:00 PM 30.1505 -84.4058 127° Southeast  Level FlightAware Approximate
Fri 02:49:00 PM 30.1273 -84.3699 127° Southeast  Level FlightAware Approximate
Fri 02:50:00 PM 30.1041 -84.3339 127° Southeast  Level FlightAware Approximate
Fri 02:51:00 PM 30.0809 -84.2980 127° Southeast  Level FlightAware Approximate
Fri 02:52:00 PM 30.0577 -84.2622 127° Southeast  Level FlightAware Approximate
Fri 02:53:00 PM 30.0345 -84.2263 127° Southeast  Level FlightAware Approximate
Fri 02:54:00 PM 30.0113 -84.1904 127° Southeast  Level FlightAware Approximate
Fri 02:55:00 PM 29.9881 -84.1546 127° Southeast  Level FlightAware Approximate
Fri 02:55:39 PM 29.9522 -84.0697 127° Southeast 139 160 8,900  Level Jacksonville Center
Fri 02:56:00 PM 29.9648 -84.1188 127° Southeast  Level FlightAware Approximate
Fri 02:56:39 PM 29.9253 -84.0358 133° Southeast 139 160 8,900  Level Jacksonville Center
Fri 02:57:00 PM 29.9416 -84.0829 127° Southeast  Level FlightAware Approximate
Fri 02:57:39 PM 29.9025 -84.0019 128° Southeast 139 160 8,900  Level Jacksonville Center
Fri 02:58:00 PM 29.9183 -84.0472 127° Southeast  Level FlightAware Approximate
Fri 02:58:39 PM 29.8778 -83.9706 132° Southeast 139 160 8,900  Level Jacksonville Center
Fri 02:59:00 PM 29.8951 -84.0114 127° Southeast  Level FlightAware Approximate
Fri 02:59:39 PM 29.8531 -83.9392 132° Southeast 139 160 8,900  Level Jacksonville Center
Fri 03:00:00 PM 29.8718 -83.9756 127° Southeast  Level FlightAware Approximate
Fri 03:00:39 PM 29.8283 -83.9053 130° Southeast 139 160 8,900  Level Jacksonville Center
Fri 03:01:39 PM 29.7992 -83.8786 142° Southeast 139 160 8,900  Level Jacksonville Center
Fri 03:02:39 PM 29.7703 -83.8519 141° Southeast 139 160 8,900  Level Jacksonville Center
Fri 03:03:39 PM 29.7369 -83.8303 151° Southeast 133 153 8,900  Level Jacksonville Center
Fri 03:04:39 PM 29.7058 -83.8061 146° Southeast 133 153 8,900  Level Jacksonville Center
Fri 03:05:39 PM 29.6747 -83.7842 148° Southeast 133 153 8,900  Level Jacksonville Center
Fri 03:06:39 PM 29.6436 -83.7600 146° Southeast 133 153 8,900  Level Jacksonville Center
Fri 03:07:39 PM 29.6144 -83.7336 142° Southeast 133 153 8,900  Level Jacksonville Center
Fri 03:08:39 PM 29.5833 -83.7117 148° Southeast 133 153 8,900  Level Jacksonville Center
Fri 03:09:39 PM 29.5500 -83.6853 145° Southeast 133 153 8,900  Level Jacksonville Center
Fri 03:10:39 PM 29.5208 -83.6636 147° Southeast 138 159 8,900  Level Jacksonville Center
Fri 03:11:39 PM 29.4897 -83.6369 143° Southeast 138 159 8,900  Level Jacksonville Center
Fri 03:12:39 PM 29.4564 -83.6153 150° Southeast 138 159 8,900  Level Jacksonville Center
Fri 03:13:39 PM 29.4253 -83.5911 146° Southeast 138 159 8,900  Level Jacksonville Center
Fri 03:14:39 PM 29.3942 -83.5672 146° Southeast 138 159 8,900  Level Jacksonville Center
Fri 03:15:39 PM 29.3650 -83.5408 142° Southeast 138 159 8,900  Level Jacksonville Center
Fri 03:16:39 PM 29.3339 -83.5192 149° Southeast 138 159 8,900  Level Jacksonville Center
Fri 03:17:39 PM 29.3006 -83.4950 148° Southeast 138 159 8,900  Level Jacksonville Center
Fri 03:18:39 PM 29.2694 -83.4711 146° Southeast 138 159 8,900  Level Jacksonville Center
Fri 03:19:39 PM 29.2381 -83.4469 146° Southeast 138 159 8,900  Level Jacksonville Center
Fri 03:20:39 PM 29.2092 -83.4231 144° Southeast 138 159 8,900  Level Jacksonville Center
Fri 03:21:39 PM 29.1778 -83.3992 146° Southeast 138 159 8,900  Level Jacksonville Center
Fri 03:22:39 PM 29.1444 -83.3753 148° Southeast 138 159 8,900  Level Jacksonville Center
Fri 03:23:39 PM 29.1133 -83.3536 149° Southeast 138 159 8,900  Level Jacksonville Center
Fri 03:24:39 PM 29.0822 -83.3275 144° Southeast 138 159 8,900  Level Jacksonville Center
Fri 03:25:39 PM 29.0531 -83.3036 144° Southeast 138 159 8,900  Level Jacksonville Center
Fri 03:26:39 PM 29.0197 -83.2819 150° Southeast 138 159 8,900  Level Jacksonville Center
Fri 03:27:39 PM 28.9906 -83.2581 144° Southeast 138 159 8,900 -200 Level Jacksonville Center
Fri 03:28:39 PM 28.9572 -83.2319 146° Southeast 138 159 8,500 -550 Descending Jacksonville Center
Fri 03:29:39 PM 28.9217 -83.2058 147° Southeast 143 165 7,800 -650 Descending Jacksonville Center
Fri 03:30:39 PM 28.8864 -83.1772 145° Southeast 148 170 7,200 -400 Descending Jacksonville Center
Fri 03:31:39 PM 28.8550 -83.1533 146° Southeast 148 170 7,000 -150 Descending Jacksonville Center
Fri 03:32:39 PM 28.8258 -83.1319 147° Southeast 143 165 6,900 -50 Descending Jacksonville Center
Fri 03:33:39 PM 28.7967 -83.1106 147° Southeast 138 159 6,900  Level Jacksonville Center
Fri 03:34:39 PM 28.7675 -83.0867 144° Southeast 133 153 6,900  Level Jacksonville Center
Fri 03:35:39 PM 28.7383 -83.0656 148° Southeast 127 146 6,900  Level Jacksonville Center
Fri 03:36:39 PM 28.7111 -83.0417 142° Southeast 127 146 6,900  Level Jacksonville Center
Fri 03:38:42 PM 28.6500 -83.0000 149° Southeast 128 147 6,900  Level Tampa TRACON
Fri 03:39:42 PM 28.6167 -82.9833 156° South 127 146 6,900  Level Tampa TRACON
Fri 03:40:48 PM 28.5833 -82.9500 139° Southeast 126 145 6,900  Level Tampa TRACON
Fri 03:41:54 PM 28.5500 -82.9333 156° South 124 143 6,900  Level Tampa TRACON
Fri 03:42:54 PM 28.5167 -82.9000 139° Southeast 124 143 6,900  Level Tampa TRACON
Fri 03:43:42 PM 28.5000 -82.8833 139° Southeast 124 143 6,900 -158 Level Tampa TRACON
Fri 03:44:48 PM 28.4667 -82.8667 156° South 125 144 6,600 -409 Descending Tampa TRACON
Fri 03:45:54 PM 28.4167 -82.8667 180° South 143 165 6,000 -571 Descending Tampa TRACON
Fri 03:46:54 PM 28.3833 -82.8500 156° South 144 166 5,400 -600 Descending Tampa TRACON
Fri 03:47:54 PM 28.3500 -82.8500 180° South 144 166 4,800 -684 Descending Tampa TRACON
Fri 03:48:48 PM 28.3000 -82.8500 180° South 147 169 4,100 -600 Descending Tampa TRACON
Fri 03:49:54 PM 28.2667 -82.8333 156° South 144 166 3,600 -500 Descending Tampa TRACON
Fri 03:51:00 PM 28.2333 -82.8167 156° South 138 159 3,000 -333 Descending Tampa TRACON
Fri 03:52:00 PM 28.1833 -82.8167 180° South 133 153 2,900 -53 Descending Tampa TRACON
Fri 03:52:54 PM 28.1667 -82.8167 180° South 120 138 2,900 50 Level Tampa TRACON
Fri 03:54:00 PM 28.1167 -82.8000 164° South 120 138 3,000  Climbing Tampa TRACON
Fri 03:54:55 PM 28.1000 -82.8000 180° South 122 140 2,900 -50 Descending Tampa TRACON
Fri 03:56:00 PM 28.0667 -82.7833 156° South 120 138 2,900  Level Tampa TRACON
Fri 03:56:55 PM 28.0333 -82.7500 139° Southeast 122 140 2,900 -52 Level Tampa TRACON
Fri 03:57:55 PM 28.0167 -82.7333 139° Southeast 121 139 2,800 -53 Descending Tampa TRACON
Fri 03:58:49 PM 28.0000 -82.7000 120° Southeast 114 131 2,800  Level Tampa TRACON
Fri 03:59:49 PM 27.9833 -82.6667 120° Southeast 121 139 2,800 53 Level Tampa TRACON
Fri 04:00:43 PM 27.9833 -82.6333 90° East 115 132 2,900  Climbing Tampa TRACON
Fri 04:02:01 PM 27.9667 -82.6000 120° Southeast 118 136 2,800 -43 Descending Tampa TRACON
Fri 04:03:01 PM 27.9667 -82.5500 90° East 114 131 2,800 -238 Level Tampa TRACON
Fri 04:04:07 PM 27.9667 -82.5167 90° East 127 146 2,300 -444 Descending Tampa TRACON
Fri 04:04:49 PM 27.9667 -82.4833 90° East 124 143 2,000 -526 Descending Tampa TRACON
Fri 04:06:01 PM 27.9667 -82.4500 90° East 109 125 1,300 -583 Descending Tampa TRACON

Login

Don't have an account? Register now (free) for customized features, flight alerts, and more!